createdAt,value
2019-04-26T00:02:06.179Z,15.53
2019-04-26T00:08:12.097Z,15.23
2019-04-26T00:14:20.842Z,15.22
2019-04-26T00:20:25.629Z,15.22
2019-04-26T00:26:30.315Z,15.04
2019-04-26T00:32:34.955Z,14.95
2019-04-26T00:38:39.589Z,14.71
2019-04-26T00:44:45.076Z,14.55
2019-04-26T00:51:23.455Z,14.33
2019-04-26T00:57:30.523Z,14.31
2019-04-26T01:03:35.376Z,14.31
2019-04-26T01:09:39.991Z,14.17
2019-04-26T01:15:44.552Z,13.68
2019-04-26T01:21:53.425Z,13.65
2019-04-26T01:27:58.382Z,13.50
2019-04-26T01:34:02.994Z,13.21
2019-04-26T01:40:10.612Z,12.74
2019-04-26T01:46:19.361Z,12.82
2019-04-26T01:52:25.603Z,12.79
2019-04-26T01:58:31.342Z,12.77
2019-04-26T02:04:40.767Z,12.65
2019-04-26T02:10:45.471Z,12.74
2019-04-26T02:16:50.264Z,12.50
2019-04-26T02:22:59.312Z,12.38
2019-04-26T02:29:11.669Z,12.22
2019-04-26T02:35:16.296Z,12.03
2019-04-26T02:41:20.907Z,12.04
2019-04-26T02:47:55.180Z,12.18
2019-04-26T02:54:10.514Z,11.86
2019-04-26T03:00:19.054Z,11.82
2019-04-26T03:06:24.335Z,11.82
2019-04-26T03:12:34.421Z,12.17
2019-04-26T03:18:51.905Z,12.09
2019-04-26T03:25:10.099Z,11.84
2019-04-26T03:31:22.434Z,11.58
2019-04-26T03:38:09.102Z,11.62
2019-04-26T03:44:26.976Z,11.18
2019-04-26T03:50:42.882Z,11.06
2019-04-26T03:57:15.036Z,10.85
2019-04-26T04:03:41.626Z,10.62
2019-04-26T04:09:49.315Z,10.60
2019-04-26T04:15:54.574Z,10.57
2019-04-26T04:22:21.157Z,10.49
2019-04-26T04:29:20.253Z,10.70
2019-04-26T04:35:27.854Z,10.82
2019-04-26T04:42:04.339Z,11.06
2019-04-26T04:48:26.072Z,11.20
2019-04-26T04:55:06.412Z,11.32
2019-04-26T05:01:11.820Z,11.26
2019-04-26T05:07:35.925Z,11.37
2019-04-26T05:13:50.352Z,11.60
2019-04-26T05:20:11.817Z,11.74
2019-04-26T05:26:40.740Z,12.01
2019-04-26T05:33:07.758Z,12.37
2019-04-26T05:39:28.963Z,12.54
2019-04-26T05:46:26.665Z,12.33
2019-04-26T05:53:15.389Z,12.83
2019-04-26T05:59:42.584Z,12.78
2019-04-26T06:06:13.968Z,13.17
2019-04-26T06:12:47.125Z,13.65
2019-04-26T06:19:21.278Z,13.40
2019-04-26T06:25:49.518Z,13.68
2019-04-26T06:32:07.734Z,14.00
2019-04-26T06:38:43.482Z,14.42
2019-04-26T06:45:30.960Z,15.24
2019-04-26T06:51:51.823Z,15.62
2019-04-26T06:58:20.581Z,15.03
2019-04-26T07:04:47.746Z,15.24
2019-04-26T07:11:07.510Z,15.20
2019-04-26T07:17:41.011Z,15.31
2019-04-26T07:24:15.308Z,15.10
2019-04-26T07:30:42.137Z,15.08
2019-04-26T07:37:22.714Z,15.03
2019-04-26T07:43:56.322Z,15.56
2019-04-26T07:50:25.246Z,16.03
2019-04-26T07:56:55.622Z,15.96
2019-04-26T08:03:26.300Z,15.77
2019-04-26T08:09:33.977Z,16.88
2019-04-26T08:15:52.123Z,17.43
2019-04-26T08:22:11.606Z,16.82
2019-04-26T08:28:09.972Z,16.45
2019-04-26T08:34:21.131Z,16.43
2019-04-26T08:40:30.997Z,15.53
2019-04-26T08:46:38.883Z,15.25
2019-04-26T08:52:46.275Z,15.16
2019-04-26T08:58:55.713Z,15.03
2019-04-26T09:05:08.951Z,14.87
2019-04-26T09:11:25.543Z,15.32
2019-04-26T09:17:21.804Z,15.43
2019-04-26T09:23:40.230Z,15.10
2019-04-26T09:29:47.451Z,14.88
2019-04-26T09:35:52.158Z,14.53
2019-04-26T09:42:14.602Z,14.77
2019-04-26T09:48:26.666Z,14.80
2019-04-26T09:54:31.291Z,14.64
2019-04-26T10:00:35.990Z,14.35
2019-04-26T10:06:40.714Z,14.37
2019-04-26T10:12:49.980Z,14.79
2019-04-26T10:18:58.259Z,15.13
2019-04-26T10:25:07.755Z,15.07
2019-04-26T10:31:08.978Z,15.09
2019-04-26T10:37:13.555Z,14.94
2019-04-26T10:43:18.258Z,14.44
2019-04-26T10:49:43.697Z,14.59
2019-04-26T10:55:56.052Z,14.84
2019-04-26T11:02:00.670Z,14.94
2019-04-26T11:08:06.076Z,15.23
2019-04-26T11:14:10.719Z,15.34
2019-04-26T11:20:15.473Z,15.10
2019-04-26T11:26:20.023Z,14.97
2019-04-26T11:32:24.649Z,15.01
2019-04-26T11:38:31.226Z,14.89
2019-04-26T11:44:35.462Z,14.95
2019-04-26T11:50:40.011Z,14.71
2019-04-26T11:56:44.570Z,14.36
2019-04-26T12:02:50.802Z,14.29
2019-04-26T12:08:57.197Z,14.09
2019-04-26T12:15:03.967Z,14.12
2019-04-26T12:21:08.153Z,13.89
2019-04-26T12:27:12.771Z,13.64
2019-04-26T12:33:17.487Z,13.59
2019-04-26T12:39:22.654Z,13.82
2019-04-26T12:45:28.860Z,13.81
2019-04-26T12:51:35.131Z,13.95
2019-04-26T12:57:40.877Z,13.70
2019-04-26T13:03:47.663Z,13.49
2019-04-26T13:10:10.249Z,13.15
2019-04-26T13:16:26.368Z,13.06
2019-04-26T13:22:28.433Z,12.93
2019-04-26T13:28:33.023Z,12.51
2019-04-26T13:34:38.367Z,12.60
2019-04-26T13:40:43.074Z,12.60
2019-04-26T13:47:03.739Z,12.49
2019-04-26T13:53:07.845Z,12.16
2019-04-26T13:59:12.640Z,11.82
2019-04-26T14:05:17.190Z,11.65
2019-04-26T14:11:28.091Z,11.51
2019-04-26T14:17:29.735Z,11.46
2019-04-26T14:23:49.468Z,11.36
2019-04-26T14:29:54.488Z,11.30
2019-04-26T14:35:59.104Z,11.04
2019-04-26T14:42:03.850Z,11.01
2019-04-26T14:48:25.206Z,10.98
2019-04-26T14:54:14.714Z,10.87
2019-04-26T15:00:22.276Z,11.04
2019-04-26T15:06:28.658Z,10.89
2019-04-26T15:12:45.710Z,11.00
2019-04-26T15:18:39.594Z,11.14
2019-04-26T15:24:44.151Z,11.27
2019-04-26T15:30:48.709Z,11.16
2019-04-26T15:36:54.262Z,11.26
2019-04-26T15:43:14.254Z,11.20
2019-04-26T15:49:12.596Z,11.19
2019-04-26T15:55:17.302Z,11.34
2019-04-26T16:01:21.841Z,11.25
2019-04-26T16:07:28.865Z,11.18
2019-04-26T16:13:32.748Z,11.30
2019-04-26T16:19:37.307Z,11.34
2019-04-26T16:25:42.831Z,11.33
2019-04-26T16:31:49.143Z,11.36
2019-04-26T16:37:53.922Z,11.34
2019-04-26T16:43:58.479Z,11.09
2019-04-26T16:50:03.717Z,11.03
2019-04-26T16:56:08.476Z,11.14
2019-04-26T17:02:20.940Z,11.14
2019-04-26T17:08:19.477Z,11.13
2019-04-26T17:14:24.599Z,11.09
2019-04-26T17:20:29.337Z,11.17
2019-04-26T17:26:36.511Z,10.97
2019-04-26T17:32:42.188Z,10.75
2019-04-26T17:38:47.791Z,10.54
2019-04-26T17:44:52.352Z,10.52
2019-04-26T17:50:56.969Z,10.37
2019-04-26T17:57:04.395Z,10.46
2019-04-26T18:03:13.229Z,10.66
2019-04-26T18:09:38.050Z,10.72
2019-04-26T18:15:21.013Z,10.66
2019-04-26T18:21:39.367Z,10.52
2019-04-26T18:27:43.919Z,10.72
2019-04-26T18:33:48.549Z,10.63
2019-04-26T18:39:53.500Z,10.77
2019-04-26T18:46:03.388Z,10.61
2019-04-26T18:52:08.789Z,10.69
2019-04-26T18:58:13.522Z,10.58
2019-04-26T19:04:18.389Z,10.58
2019-04-26T19:10:25.694Z,10.54
2019-04-26T19:16:35.768Z,10.39
2019-04-26T19:22:41.969Z,10.46
2019-04-26T19:28:46.525Z,10.40
2019-04-26T19:34:52.462Z,10.39
2019-04-26T19:40:57.117Z,10.44
2019-04-26T19:47:15.424Z,10.35
2019-04-26T19:53:24.943Z,10.56
2019-04-26T19:59:33.253Z,10.22
2019-04-26T20:05:36.361Z,10.30
2019-04-26T20:11:42.354Z,10.22
2019-04-26T20:17:52.391Z,10.23
2019-04-26T20:23:54.528Z,10.34
2019-04-26T20:29:59.397Z,10.27
2019-04-26T20:36:04.897Z,10.32
2019-04-26T20:42:09.594Z,10.34
2019-04-26T20:48:14.210Z,10.49
2019-04-26T20:54:18.779Z,10.68
2019-04-26T21:00:24.347Z,10.59
2019-04-26T21:06:33.008Z,10.46
2019-04-26T21:12:35.274Z,10.41
2019-04-26T21:18:41.913Z,10.48
2019-04-26T21:24:50.731Z,10.50
2019-04-26T21:31:09.165Z,10.57
2019-04-26T21:37:20.510Z,10.45
2019-04-26T21:43:23.171Z,10.60
2019-04-26T21:49:28.670Z,10.49
2019-04-26T21:55:38.364Z,10.48
2019-04-26T22:01:39.511Z,10.44
2019-04-26T22:07:47.658Z,10.61
2019-04-26T22:14:07.040Z,10.44
2019-04-26T22:20:15.621Z,10.42
2019-04-26T22:26:17.970Z,10.32
2019-04-26T22:32:22.966Z,10.44
2019-04-26T22:38:27.708Z,10.32
2019-04-26T22:44:43.679Z,10.38
2019-04-26T22:50:53.694Z,10.40
2019-04-26T22:56:54.743Z,10.49
2019-04-26T23:03:03.678Z,10.36
2019-04-26T23:09:11.491Z,10.47
2019-04-26T23:15:16.683Z,10.52
2019-04-26T23:21:24.896Z,10.28
2019-04-26T23:27:29.567Z,10.55
2019-04-26T23:33:34.117Z,10.24
2019-04-26T23:39:38.722Z,10.12
2019-04-26T23:45:48.290Z,10.14
2019-04-26T23:51:53.219Z,10.11
2019-04-26T23:57:57.641Z,10.36
